sensor_id;sensor_type;location;lat;lon;timestamp;pressure;altitude;pressure_sealevel;temperature;humidity
16777;BME280;8505;49.456;8.164;2022-12-10T00:01:07;98713.13;;;1.24;80.81
16777;BME280;8505;49.456;8.164;2022-12-10T00:03:36;98715.44;;;1.66;79.66
16777;BME280;8505;49.456;8.164;2022-12-10T00:06:06;98717.13;;;1.28;80.77
16777;BME280;8505;49.456;8.164;2022-12-10T00:08:34;98727.28;;;1.41;80.09
16777;BME280;8505;49.456;8.164;2022-12-10T00:11:06;98726.00;;;1.64;79.92
16777;BME280;8505;49.456;8.164;2022-12-10T00:13:35;98727.63;;;1.75;79.65
16777;BME280;8505;49.456;8.164;2022-12-10T00:16:08;98725.09;;;1.92;79.19
16777;BME280;8505;49.456;8.164;2022-12-10T00:18:37;98726.28;;;1.71;79.31
16777;BME280;8505;49.456;8.164;2022-12-10T00:21:06;98723.94;;;1.68;78.49
16777;BME280;8505;49.456;8.164;2022-12-10T00:23:35;98729.00;;;1.79;78.54
16777;BME280;8505;49.456;8.164;2022-12-10T00:26:05;98721.09;;;1.42;80.29
16777;BME280;8505;49.456;8.164;2022-12-10T00:28:33;98721.63;;;1.55;80.04
16777;BME280;8505;49.456;8.164;2022-12-10T00:31:04;98721.78;;;1.53;79.52
16777;BME280;8505;49.456;8.164;2022-12-10T00:33:33;98718.28;;;1.82;78.83
16777;BME280;8505;49.456;8.164;2022-12-10T00:36:02;98715.66;;;1.82;78.69
16777;BME280;8505;49.456;8.164;2022-12-10T00:38:29;98713.06;;;1.82;78.45
16777;BME280;8505;49.456;8.164;2022-12-10T00:40:57;98721.75;;;1.73;78.89
16777;BME280;8505;49.456;8.164;2022-12-10T00:43:26;98714.09;;;1.33;80.15
16777;BME280;8505;49.456;8.164;2022-12-10T00:45:54;98720.28;;;1.22;80.57
16777;BME280;8505;49.456;8.164;2022-12-10T00:48:22;98721.34;;;1.48;79.59
16777;BME280;8505;49.456;8.164;2022-12-10T00:50:58;98721.22;;;1.50;79.62
16777;BME280;8505;49.456;8.164;2022-12-10T00:53:27;98723.84;;;1.11;81.58
16777;BME280;8505;49.456;8.164;2022-12-10T00:55:56;98718.34;;;1.53;80.69
16777;BME280;8505;49.456;8.164;2022-12-10T00:58:28;98724.22;;;1.65;80.16
16777;BME280;8505;49.456;8.164;2022-12-10T01:01:06;98728.75;;;1.62;80.32
16777;BME280;8505;49.456;8.164;2022-12-10T01:04:02;98723.78;;;1.69;79.51
16777;BME280;8505;49.456;8.164;2022-12-10T01:06:54;98727.69;;;1.46;79.94
16777;BME280;8505;49.456;8.164;2022-12-10T01:09:23;98723.28;;;1.46;79.83
16777;BME280;8505;49.456;8.164;2022-12-10T01:11:53;98727.38;;;1.68;80.13
16777;BME280;8505;49.456;8.164;2022-12-10T01:14:23;98726.28;;;1.71;79.14
16777;BME280;8505;49.456;8.164;2022-12-10T01:16:53;98733.81;;;1.74;79.39
16777;BME280;8505;49.456;8.164;2022-12-10T01:19:22;98738.09;;;1.55;80.27
16777;BME280;8505;49.456;8.164;2022-12-10T01:21:50;98743.47;;;1.44;80.39
16777;BME280;8505;49.456;8.164;2022-12-10T01:24:18;98746.06;;;1.63;79.49
16777;BME280;8505;49.456;8.164;2022-12-10T01:26:46;98752.38;;;1.51;80.18
16777;BME280;8505;49.456;8.164;2022-12-10T01:29:14;98754.44;;;1.38;80.43
16777;BME280;8505;49.456;8.164;2022-12-10T01:31:43;98754.84;;;1.62;80.02
16777;BME280;8505;49.456;8.164;2022-12-10T01:34:14;98753.75;;;1.46;80.20
16777;BME280;8505;49.456;8.164;2022-12-10T01:36:44;98759.50;;;1.30;80.55
16777;BME280;8505;49.456;8.164;2022-12-10T01:39:18;98754.16;;;1.32;80.34
16777;BME280;8505;49.456;8.164;2022-12-10T01:41:49;98755.53;;;1.55;79.86
16777;BME280;8505;49.456;8.164;2022-12-10T01:47:24;98757.59;;;1.32;81.38
16777;BME280;8505;49.456;8.164;2022-12-10T01:49:52;98755.25;;;1.58;80.07
16777;BME280;8505;49.456;8.164;2022-12-10T01:52:20;98766.50;;;1.49;80.59
16777;BME280;8505;49.456;8.164;2022-12-10T01:54:48;98762.41;;;1.37;80.59
16777;BME280;8505;49.456;8.164;2022-12-10T01:57:17;98765.56;;;1.31;81.03
16777;BME280;8505;49.456;8.164;2022-12-10T01:59:49;98769.53;;;1.25;81.22
16777;BME280;8505;49.456;8.164;2022-12-10T02:02:28;98773.19;;;0.94;82.10
16777;BME280;8505;49.456;8.164;2022-12-10T02:05:04;98768.03;;;1.03;82.11
16777;BME280;8505;49.456;8.164;2022-12-10T02:07:42;98779.00;;;1.26;81.42
16777;BME280;8505;49.456;8.164;2022-12-10T02:10:20;98772.16;;;1.35;80.86
16777;BME280;8505;49.456;8.164;2022-12-10T02:12:55;98771.63;;;1.41;80.15
16777;BME280;8505;49.456;8.164;2022-12-10T02:15:25;98774.06;;;1.42;80.39
16777;BME280;8505;49.456;8.164;2022-12-10T02:17:58;98777.38;;;1.35;80.53
16777;BME280;8505;49.456;8.164;2022-12-10T02:20:31;98775.84;;;1.32;81.04
16777;BME280;8505;49.456;8.164;2022-12-10T02:23:03;98773.22;;;1.03;81.27
16777;BME280;8505;49.456;8.164;2022-12-10T02:25:36;98772.97;;;1.16;81.15
16777;BME280;8505;49.456;8.164;2022-12-10T02:28:12;98775.16;;;1.30;80.00
16777;BME280;8505;49.456;8.164;2022-12-10T02:30:42;98772.44;;;1.41;79.44
16777;BME280;8505;49.456;8.164;2022-12-10T02:33:13;98766.66;;;1.38;79.64
16777;BME280;8505;49.456;8.164;2022-12-10T02:35:42;98768.88;;;1.23;80.71
16777;BME280;8505;49.456;8.164;2022-12-10T02:38:14;98775.59;;;1.35;80.10
16777;BME280;8505;49.456;8.164;2022-12-10T02:40:45;98773.94;;;1.25;80.53
16777;BME280;8505;49.456;8.164;2022-12-10T02:43:14;98764.75;;;1.20;80.48
16777;BME280;8505;49.456;8.164;2022-12-10T02:45:44;98763.63;;;1.04;81.24
16777;BME280;8505;49.456;8.164;2022-12-10T02:48:13;98765.84;;;1.28;80.69
16777;BME280;8505;49.456;8.164;2022-12-10T02:50:41;98766.25;;;1.33;80.30
16777;BME280;8505;49.456;8.164;2022-12-10T02:53:08;98762.69;;;1.05;81.15
16777;BME280;8505;49.456;8.164;2022-12-10T02:55:46;98761.72;;;1.15;81.47
16777;BME280;8505;49.456;8.164;2022-12-10T02:58:26;98767.47;;;1.19;80.87
16777;BME280;8505;49.456;8.164;2022-12-10T03:01:02;98758.16;;;1.16;81.29
16777;BME280;8505;49.456;8.164;2022-12-10T03:03:39;98759.78;;;1.08;81.10
16777;BME280;8505;49.456;8.164;2022-12-10T03:06:16;98761.72;;;1.25;81.32
16777;BME280;8505;49.456;8.164;2022-12-10T03:08:48;98762.94;;;1.31;80.56
16777;BME280;8505;49.456;8.164;2022-12-10T03:11:17;98759.25;;;1.33;79.98
16777;BME280;8505;49.456;8.164;2022-12-10T03:13:57;98757.75;;;1.21;80.53
16777;BME280;8505;49.456;8.164;2022-12-10T03:16:33;98758.28;;;1.44;79.62
16777;BME280;8505;49.456;8.164;2022-12-10T03:19:06;98756.91;;;1.01;81.26
16777;BME280;8505;49.456;8.164;2022-12-10T03:21:36;98762.94;;;1.11;81.08
16777;BME280;8505;49.456;8.164;2022-12-10T03:24:05;98757.06;;;1.09;80.72
16777;BME280;8505;49.456;8.164;2022-12-10T03:26:33;98760.91;;;1.15;80.56
16777;BME280;8505;49.456;8.164;2022-12-10T03:29:06;98762.53;;;1.16;81.05
16777;BME280;8505;49.456;8.164;2022-12-10T03:31:38;98762.41;;;1.08;81.29
16777;BME280;8505;49.456;8.164;2022-12-10T03:34:07;98766.09;;;0.96;81.59
16777;BME280;8505;49.456;8.164;2022-12-10T03:36:36;98760.47;;;1.00;81.80
16777;BME280;8505;49.456;8.164;2022-12-10T03:39:05;98771.03;;;1.18;80.80
16777;BME280;8505;49.456;8.164;2022-12-10T03:41:33;98770.63;;;1.13;81.19
16777;BME280;8505;49.456;8.164;2022-12-10T03:44:01;98769.97;;;1.11;80.79
16777;BME280;8505;49.456;8.164;2022-12-10T03:46:30;98769.97;;;1.11;81.50
16777;BME280;8505;49.456;8.164;2022-12-10T03:49:00;98765.28;;;1.05;80.74
16777;BME280;8505;49.456;8.164;2022-12-10T03:51:28;98777.72;;;0.82;81.22
16777;BME280;8505;49.456;8.164;2022-12-10T03:53:56;98776.09;;;0.91;81.47
16777;BME280;8505;49.456;8.164;2022-12-10T03:56:24;98776.50;;;0.96;81.21
16777;BME280;8505;49.456;8.164;2022-12-10T03:58:51;98772.09;;;0.87;81.88
16777;BME280;8505;49.456;8.164;2022-12-10T04:01:19;98776.50;;;0.96;81.37
16777;BME280;8505;49.456;8.164;2022-12-10T04:03:48;98779.94;;;0.96;81.87
16777;BME280;8505;49.456;8.164;2022-12-10T04:06:18;98781.06;;;1.03;81.13
16777;BME280;8505;49.456;8.164;2022-12-10T04:08:47;98793.13;;;1.14;81.05
16777;BME280;8505;49.456;8.164;2022-12-10T04:11:24;98788.84;;;0.94;81.48
16777;BME280;8505;49.456;8.164;2022-12-10T04:13:51;98787.69;;;0.67;82.24
16777;BME280;8505;49.456;8.164;2022-12-10T04:16:34;98793.50;;;0.90;80.94
16777;BME280;8505;49.456;8.164;2022-12-10T04:19:04;98786.69;;;0.99;82.23
16777;BME280;8505;49.456;8.164;2022-12-10T04:21:35;98783.13;;;1.09;81.45
16777;BME280;8505;49.456;8.164;2022-12-10T04:24:21;98791.97;;;0.88;81.76
16777;BME280;8505;49.456;8.164;2022-12-10T04:27:09;98795.03;;;1.12;81.10
16777;BME280;8505;49.456;8.164;2022-12-10T04:29:39;98796.81;;;1.02;81.55
16777;BME280;8505;49.456;8.164;2022-12-10T04:32:07;98799.41;;;0.92;81.71
16777;BME280;8505;49.456;8.164;2022-12-10T04:34:35;98802.88;;;1.12;80.71
16777;BME280;8505;49.456;8.164;2022-12-10T04:37:04;98794.34;;;1.00;80.64
16777;BME280;8505;49.456;8.164;2022-12-10T04:39:33;98801.63;;;0.97;81.08
16777;BME280;8505;49.456;8.164;2022-12-10T04:42:01;98797.88;;;0.80;81.04
16777;BME280;8505;49.456;8.164;2022-12-10T04:44:29;98797.72;;;0.81;81.60
16777;BME280;8505;49.456;8.164;2022-12-10T04:46:57;98800.91;;;0.95;81.00
16777;BME280;8505;49.456;8.164;2022-12-10T04:49:24;98797.34;;;0.86;80.95
16777;BME280;8505;49.456;8.164;2022-12-10T04:51:52;98797.59;;;0.73;81.11
16777;BME280;8505;49.456;8.164;2022-12-10T04:54:23;98798.00;;;0.78;80.79
16777;BME280;8505;49.456;8.164;2022-12-10T04:56:50;98803.09;;;0.80;80.64
16777;BME280;8505;49.456;8.164;2022-12-10T04:59:18;98800.38;;;0.91;80.30
16777;BME280;8505;49.456;8.164;2022-12-10T05:01:46;98798.44;;;0.93;79.92
16777;BME280;8505;49.456;8.164;2022-12-10T05:04:15;98803.88;;;0.80;80.15
16777;BME280;8505;49.456;8.164;2022-12-10T05:06:44;98798.44;;;0.84;80.03
16777;BME280;8505;49.456;8.164;2022-12-10T05:09:12;98803.88;;;0.71;80.68
16777;BME280;8505;49.456;8.164;2022-12-10T05:11:42;98810.22;;;0.78;80.76
16777;BME280;8505;49.456;8.164;2022-12-10T05:14:11;98812.16;;;0.86;80.57
16777;BME280;8505;49.456;8.164;2022-12-10T05:16:38;98812.38;;;0.73;80.63
16777;BME280;8505;49.456;8.164;2022-12-10T05:19:08;98820.66;;;0.88;80.11
16777;BME280;8505;49.456;8.164;2022-12-10T05:21:35;98823.66;;;0.83;79.71
16777;BME280;8505;49.456;8.164;2022-12-10T05:24:21;98827.66;;;0.57;80.94
16777;BME280;8505;49.456;8.164;2022-12-10T05:26:50;98824.31;;;0.75;79.79
16777;BME280;8505;49.456;8.164;2022-12-10T05:29:18;98824.91;;;0.89;79.82
16777;BME280;8505;49.456;8.164;2022-12-10T05:31:46;98826.66;;;0.78;79.90
16777;BME280;8505;49.456;8.164;2022-12-10T05:34:14;98822.16;;;0.90;79.63
16777;BME280;8505;49.456;8.164;2022-12-10T05:36:41;98833.44;;;1.00;79.06
16777;BME280;8505;49.456;8.164;2022-12-10T05:39:09;98830.81;;;1.00;79.19
16777;BME280;8505;49.456;8.164;2022-12-10T05:41:38;98836.25;;;0.78;79.40
16777;BME280;8505;49.456;8.164;2022-12-10T05:44:09;98837.03;;;0.69;79.66
16777;BME280;8505;49.456;8.164;2022-12-10T05:46:37;98841.69;;;0.65;80.18
16777;BME280;8505;49.456;8.164;2022-12-10T05:49:06;98836.81;;;0.81;79.28
16777;BME280;8505;49.456;8.164;2022-12-10T05:51:36;98829.28;;;0.88;79.30
16777;BME280;8505;49.456;8.164;2022-12-10T05:54:06;98826.81;;;0.87;78.92
16777;BME280;8505;49.456;8.164;2022-12-10T05:56:36;98843.06;;;0.69;79.59
16777;BME280;8505;49.456;8.164;2022-12-10T05:59:04;98843.66;;;0.73;79.49
16777;BME280;8505;49.456;8.164;2022-12-10T06:01:43;98845.84;;;0.77;79.25
16777;BME280;8505;49.456;8.164;2022-12-10T06:04:10;98848.47;;;0.77;79.38
16777;BME280;8505;49.456;8.164;2022-12-10T06:06:39;98852.34;;;0.62;79.64
16777;BME280;8505;49.456;8.164;2022-12-10T06:09:10;98856.41;;;0.76;79.71
16777;BME280;8505;49.456;8.164;2022-12-10T06:11:38;98853.78;;;0.76;79.48
16777;BME280;8505;49.456;8.164;2022-12-10T06:14:06;98853.31;;;0.92;78.94
16777;BME280;8505;49.456;8.164;2022-12-10T06:16:33;98854.63;;;0.76;79.47
16777;BME280;8505;49.456;8.164;2022-12-10T06:19:03;98864.78;;;0.79;79.43
16777;BME280;8505;49.456;8.164;2022-12-10T06:21:30;98866.28;;;0.82;79.64
16777;BME280;8505;49.456;8.164;2022-12-10T06:23:58;98861.72;;;0.74;79.95
16777;BME280;8505;49.456;8.164;2022-12-10T06:26:26;98857.13;;;0.88;79.41
16777;BME280;8505;49.456;8.164;2022-12-10T06:28:54;98870.78;;;0.70;79.93
16777;BME280;8505;49.456;8.164;2022-12-10T06:31:22;98875.66;;;0.85;79.24
16777;BME280;8505;49.456;8.164;2022-12-10T06:33:50;98876.03;;;0.80;79.25
16777;BME280;8505;49.456;8.164;2022-12-10T06:36:20;98875.47;;;0.76;79.35
16777;BME280;8505;49.456;8.164;2022-12-10T06:38:47;98874.84;;;0.63;79.98
16777;BME280;8505;49.456;8.164;2022-12-10T06:41:17;98871.38;;;0.84;79.12
16777;BME280;8505;49.456;8.164;2022-12-10T06:43:47;98873.19;;;0.93;79.28
16777;BME280;8505;49.456;8.164;2022-12-10T06:46:16;98875.84;;;1.02;78.34
16777;BME280;8505;49.456;8.164;2022-12-10T06:48:45;98880.06;;;0.94;78.66
16777;BME280;8505;49.456;8.164;2022-12-10T06:51:13;98882.06;;;0.80;78.78
16777;BME280;8505;49.456;8.164;2022-12-10T06:53:42;98872.16;;;1.05;78.76
16777;BME280;8505;49.456;8.164;2022-12-10T06:56:12;98889.69;;;1.03;78.12
16777;BME280;8505;49.456;8.164;2022-12-10T06:58:40;98885.66;;;0.59;79.31
16777;BME280;8505;49.456;8.164;2022-12-10T07:01:12;98897.00;;;0.78;78.77
16777;BME280;8505;49.456;8.164;2022-12-10T07:03:41;98894.75;;;0.64;79.68
16777;BME280;8505;49.456;8.164;2022-12-10T07:06:10;98895.38;;;0.87;78.62
16777;BME280;8505;49.456;8.164;2022-12-10T07:08:38;98887.72;;;0.86;78.45
16777;BME280;8505;49.456;8.164;2022-12-10T07:11:08;98892.41;;;0.61;79.73
16777;BME280;8505;49.456;8.164;2022-12-10T07:13:36;98901.50;;;0.76;79.35
16777;BME280;8505;49.456;8.164;2022-12-10T07:16:12;98900.03;;;0.74;79.55
16777;BME280;8505;49.456;8.164;2022-12-10T07:18:40;98907.25;;;0.70;79.27
16777;BME280;8505;49.456;8.164;2022-12-10T07:21:15;98909.66;;;0.62;79.60
16777;BME280;8505;49.456;8.164;2022-12-10T07:23:43;98909.94;;;0.59;80.11
16777;BME280;8505;49.456;8.164;2022-12-10T07:26:13;98908.25;;;0.49;80.02
16777;BME280;8505;49.456;8.164;2022-12-10T07:28:40;98918.56;;;0.60;79.82
16777;BME280;8505;49.456;8.164;2022-12-10T07:31:19;98910.34;;;0.55;79.37
16777;BME280;8505;49.456;8.164;2022-12-10T07:33:47;98918.38;;;0.52;79.86
16777;BME280;8505;49.456;8.164;2022-12-10T07:36:14;98921.44;;;0.57;79.28
16777;BME280;8505;49.456;8.164;2022-12-10T07:38:42;98925.22;;;0.43;79.78
16777;BME280;8505;49.456;8.164;2022-12-10T07:41:12;98938.72;;;0.58;79.38
16777;BME280;8505;49.456;8.164;2022-12-10T07:43:42;98933.63;;;0.56;79.59
16777;BME280;8505;49.456;8.164;2022-12-10T07:46:12;98940.00;;;0.43;79.61
16777;BME280;8505;49.456;8.164;2022-12-10T07:48:45;98935.13;;;0.49;79.46
16777;BME280;8505;49.456;8.164;2022-12-10T07:51:13;98945.69;;;0.57;79.49
16777;BME280;8505;49.456;8.164;2022-12-10T07:53:42;98946.91;;;0.53;79.42
16777;BME280;8505;49.456;8.164;2022-12-10T07:56:10;98945.06;;;0.65;79.33
16777;BME280;8505;49.456;8.164;2022-12-10T07:58:43;98941.19;;;0.59;79.36
16777;BME280;8505;49.456;8.164;2022-12-10T08:01:13;98947.03;;;0.72;78.79
16777;BME280;8505;49.456;8.164;2022-12-10T08:03:41;98945.09;;;0.74;80.18
16777;BME280;8505;49.456;8.164;2022-12-10T08:06:11;98946.44;;;0.69;79.12
16777;BME280;8505;49.456;8.164;2022-12-10T08:08:41;98949.94;;;0.79;79.51
16777;BME280;8505;49.456;8.164;2022-12-10T08:11:09;98957.75;;;0.79;78.89
16777;BME280;8505;49.456;8.164;2022-12-10T08:13:37;98955.69;;;0.73;79.95
16777;BME280;8505;49.456;8.164;2022-12-10T08:16:09;98956.63;;;0.72;79.83
16777;BME280;8505;49.456;8.164;2022-12-10T08:18:37;98962.78;;;0.92;78.92
16777;BME280;8505;49.456;8.164;2022-12-10T08:21:06;98959.75;;;0.96;78.74
16777;BME280;8505;49.456;8.164;2022-12-10T08:23:34;98960.59;;;0.97;78.14
16777;BME280;8505;49.456;8.164;2022-12-10T08:26:03;98964.41;;;0.93;78.68
16777;BME280;8505;49.456;8.164;2022-12-10T08:28:31;98959.03;;;0.85;79.41
16777;BME280;8505;49.456;8.164;2022-12-10T08:30:59;98968.22;;;0.89;79.37
16777;BME280;8505;49.456;8.164;2022-12-10T08:33:28;98966.63;;;0.97;78.67
16777;BME280;8505;49.456;8.164;2022-12-10T08:35:59;98961.53;;;0.96;78.47
16777;BME280;8505;49.456;8.164;2022-12-10T08:38:28;98960.38;;;0.79;78.29
16777;BME280;8505;49.456;8.164;2022-12-10T08:40:56;98963.91;;;0.99;78.36
16777;BME280;8505;49.456;8.164;2022-12-10T08:43:24;98967.91;;;1.03;77.27
16777;BME280;8505;49.456;8.164;2022-12-10T08:45:51;98973.13;;;1.12;78.51
16777;BME280;8505;49.456;8.164;2022-12-10T08:48:20;98972.69;;;1.38;78.02
16777;BME280;8505;49.456;8.164;2022-12-10T08:50:51;98973.63;;;1.27;76.49
16777;BME280;8505;49.456;8.164;2022-12-10T08:53:19;98978.94;;;1.16;76.60
16777;BME280;8505;49.456;8.164;2022-12-10T08:55:49;98982.97;;;1.30;76.60
16777;BME280;8505;49.456;8.164;2022-12-10T08:58:17;98977.09;;;1.07;77.11
16777;BME280;8505;49.456;8.164;2022-12-10T09:00:45;98979.56;;;1.39;76.62
16777;BME280;8505;49.456;8.164;2022-12-10T09:03:13;98980.00;;;1.13;77.69
16777;BME280;8505;49.456;8.164;2022-12-10T09:05:41;98978.44;;;1.32;76.81
16777;BME280;8505;49.456;8.164;2022-12-10T09:08:11;98987.38;;;1.29;76.44
16777;BME280;8505;49.456;8.164;2022-12-10T09:10:39;98979.91;;;1.25;77.63
16777;BME280;8505;49.456;8.164;2022-12-10T09:13:07;98983.53;;;1.43;76.43
16777;BME280;8505;49.456;8.164;2022-12-10T09:15:35;98981.63;;;1.35;77.03
16777;BME280;8505;49.456;8.164;2022-12-10T09:18:03;98981.63;;;1.45;76.45
16777;BME280;8505;49.456;8.164;2022-12-10T09:20:30;98976.59;;;1.53;76.43
16777;BME280;8505;49.456;8.164;2022-12-10T09:22:58;98982.88;;;1.41;76.70
16777;BME280;8505;49.456;8.164;2022-12-10T09:25:27;98980.56;;;1.57;75.90
16777;BME280;8505;49.456;8.164;2022-12-10T09:27:55;98979.09;;;1.74;75.00
16777;BME280;8505;49.456;8.164;2022-12-10T09:30:23;98979.25;;;1.82;75.23
16777;BME280;8505;49.456;8.164;2022-12-10T09:32:50;98973.50;;;1.78;75.44
16777;BME280;8505;49.456;8.164;2022-12-10T09:35:18;98980.25;;;2.00;74.39
16777;BME280;8505;49.456;8.164;2022-12-10T09:37:45;98988.47;;;1.86;74.06
16777;BME280;8505;49.456;8.164;2022-12-10T09:40:15;98978.84;;;1.77;74.28
16777;BME280;8505;49.456;8.164;2022-12-10T09:42:51;98985.72;;;1.87;74.50
16777;BME280;8505;49.456;8.164;2022-12-10T09:45:26;98987.78;;;1.84;75.00
16777;BME280;8505;49.456;8.164;2022-12-10T09:48:01;98993.03;;;2.32;73.74
16777;BME280;8505;49.456;8.164;2022-12-10T09:50:47;98990.28;;;2.24;72.74
16777;BME280;8505;49.456;8.164;2022-12-10T09:53:19;98989.75;;;2.20;72.50
16777;BME280;8505;49.456;8.164;2022-12-10T09:55:49;98992.50;;;2.38;72.44
16777;BME280;8505;49.456;8.164;2022-12-10T09:58:21;98993.31;;;2.58;71.04
16777;BME280;8505;49.456;8.164;2022-12-10T10:00:57;98991.94;;;2.63;71.13
16777;BME280;8505;49.456;8.164;2022-12-10T10:03:37;98994.97;;;2.59;71.43
16777;BME280;8505;49.456;8.164;2022-12-10T10:06:08;98991.81;;;2.46;71.06
16777;BME280;8505;49.456;8.164;2022-12-10T10:08:40;98987.22;;;2.67;69.94
16777;BME280;8505;49.456;8.164;2022-12-10T10:11:11;98989.59;;;2.41;69.73
16777;BME280;8505;49.456;8.164;2022-12-10T10:13:44;99001.97;;;2.77;70.50
16777;BME280;8505;49.456;8.164;2022-12-10T10:16:23;98993.25;;;2.96;69.88
16777;BME280;8505;49.456;8.164;2022-12-10T10:18:56;99002.75;;;2.88;69.18
16777;BME280;8505;49.456;8.164;2022-12-10T10:21:26;99001.19;;;3.04;69.41
16777;BME280;8505;49.456;8.164;2022-12-10T10:23:55;99006.03;;;2.99;68.93
16777;BME280;8505;49.456;8.164;2022-12-10T10:26:25;98996.28;;;2.92;70.17
16777;BME280;8505;49.456;8.164;2022-12-10T10:28:57;98998.25;;;2.61;68.94
16777;BME280;8505;49.456;8.164;2022-12-10T10:31:28;98996.47;;;2.42;70.39
16777;BME280;8505;49.456;8.164;2022-12-10T10:33:58;98994.69;;;2.33;70.66
16777;BME280;8505;49.456;8.164;2022-12-10T10:36:29;99001.41;;;2.55;70.19
16777;BME280;8505;49.456;8.164;2022-12-10T10:39:07;99003.22;;;2.25;71.30
16777;BME280;8505;49.456;8.164;2022-12-10T10:41:35;98994.44;;;2.46;70.97
16777;BME280;8505;49.456;8.164;2022-12-10T10:44:13;98998.34;;;2.78;69.35
16777;BME280;8505;49.456;8.164;2022-12-10T10:46:44;98997.63;;;3.05;68.61
16777;BME280;8505;49.456;8.164;2022-12-10T10:49:22;99005.56;;;2.57;69.79
16777;BME280;8505;49.456;8.164;2022-12-10T10:51:50;99001.41;;;2.74;68.37
16777;BME280;8505;49.456;8.164;2022-12-10T10:54:32;99003.53;;;3.07;68.70
16777;BME280;8505;49.456;8.164;2022-12-10T10:57:08;99006.16;;;2.98;68.68
16777;BME280;8505;49.456;8.164;2022-12-10T10:59:40;99010.56;;;2.97;69.04
16777;BME280;8505;49.456;8.164;2022-12-10T11:02:17;99004.47;;;3.16;68.33
16777;BME280;8505;49.456;8.164;2022-12-10T11:04:48;99003.78;;;3.14;68.93
16777;BME280;8505;49.456;8.164;2022-12-10T11:07:21;99007.41;;;2.94;69.13
16777;BME280;8505;49.456;8.164;2022-12-10T11:09:50;99011.16;;;2.72;69.21
16777;BME280;8505;49.456;8.164;2022-12-10T11:12:36;99017.75;;;2.85;69.10
16777;BME280;8505;49.456;8.164;2022-12-10T11:15:29;99018.47;;;2.59;69.07
16777;BME280;8505;49.456;8.164;2022-12-10T11:17:58;99016.28;;;2.64;69.56
16777;BME280;8505;49.456;8.164;2022-12-10T11:20:28;99014.69;;;2.90;69.23
16777;BME280;8505;49.456;8.164;2022-12-10T11:22:58;99015.03;;;2.39;70.10
16777;BME280;8505;49.456;8.164;2022-12-10T11:25:38;99014.63;;;2.63;70.57
16777;BME280;8505;49.456;8.164;2022-12-10T11:28:24;99015.56;;;2.81;69.65
16777;BME280;8505;49.456;8.164;2022-12-10T11:31:10;99011.16;;;2.81;68.09
16777;BME280;8505;49.456;8.164;2022-12-10T11:33:47;99002.97;;;2.28;71.26
16777;BME280;8505;49.456;8.164;2022-12-10T11:36:28;99001.22;;;2.85;69.48
16777;BME280;8505;49.456;8.164;2022-12-10T11:39:06;99009.25;;;2.74;69.18
16777;BME280;8505;49.456;8.164;2022-12-10T11:41:42;99012.41;;;2.10;71.08
16777;BME280;8505;49.456;8.164;2022-12-10T11:44:20;99001.50;;;3.01;69.66
16777;BME280;8505;49.456;8.164;2022-12-10T11:47:04;99004.94;;;2.92;68.36
16777;BME280;8505;49.456;8.164;2022-12-10T11:49:39;99007.03;;;2.89;68.96
16777;BME280;8505;49.456;8.164;2022-12-10T11:52:16;99001.97;;;2.68;69.09
16777;BME280;8505;49.456;8.164;2022-12-10T11:54:58;99007.97;;;2.78;69.05
16777;BME280;8505;49.456;8.164;2022-12-10T11:57:41;99014.06;;;2.30;70.93
16777;BME280;8505;49.456;8.164;2022-12-10T12:00:18;99004.03;;;2.55;70.19
16777;BME280;8505;49.456;8.164;2022-12-10T12:03:04;99017.78;;;2.57;69.90
16777;BME280;8505;49.456;8.164;2022-12-10T12:05:45;99009.34;;;2.92;69.59
16777;BME280;8505;49.456;8.164;2022-12-10T12:08:21;99010.31;;;2.91;69.29
16777;BME280;8505;49.456;8.164;2022-12-10T12:13:55;99017.31;;;2.90;68.24
16777;BME280;8505;49.456;8.164;2022-12-10T12:16:28;99016.81;;;2.67;68.40
16777;BME280;8505;49.456;8.164;2022-12-10T12:19:01;99024.94;;;2.83;68.33
16777;BME280;8505;49.456;8.164;2022-12-10T12:21:30;99026.25;;;3.07;67.28
16777;BME280;8505;49.456;8.164;2022-12-10T12:24:00;99031.44;;;3.16;67.03
16777;BME280;8505;49.456;8.164;2022-12-10T12:26:32;99030.03;;;3.59;65.69
16777;BME280;8505;49.456;8.164;2022-12-10T12:29:11;99038.53;;;3.43;64.86
16777;BME280;8505;49.456;8.164;2022-12-10T12:31:44;99040.13;;;3.54;65.79
16777;BME280;8505;49.456;8.164;2022-12-10T12:34:18;99040.88;;;3.37;63.89
16777;BME280;8505;49.456;8.164;2022-12-10T12:36:48;99034.69;;;3.38;64.81
16777;BME280;8505;49.456;8.164;2022-12-10T12:39:21;99034.19;;;3.15;65.19
16777;BME280;8505;49.456;8.164;2022-12-10T12:41:55;99031.94;;;3.66;64.03
16777;BME280;8505;49.456;8.164;2022-12-10T12:44:33;99029.91;;;3.88;63.19
16777;BME280;8505;49.456;8.164;2022-12-10T12:47:14;99036.84;;;3.79;63.87
16777;BME280;8505;49.456;8.164;2022-12-10T12:49:48;99028.72;;;3.82;63.39
16777;BME280;8505;49.456;8.164;2022-12-10T12:52:28;99027.47;;;3.49;64.81
16777;BME280;8505;49.456;8.164;2022-12-10T12:55:02;99033.09;;;3.27;65.44
16777;BME280;8505;49.456;8.164;2022-12-10T12:57:37;99034.34;;;3.13;65.88
16777;BME280;8505;49.456;8.164;2022-12-10T13:00:11;99037.66;;;3.06;66.52
16777;BME280;8505;49.456;8.164;2022-12-10T13:02:48;99041.31;;;2.57;68.46
16777;BME280;8505;49.456;8.164;2022-12-10T13:05:25;99042.66;;;2.90;68.91
16777;BME280;8505;49.456;8.164;2022-12-10T13:08:25;99042.53;;;2.62;68.65
16777;BME280;8505;49.456;8.164;2022-12-10T13:10:58;99041.84;;;2.79;68.49
16777;BME280;8505;49.456;8.164;2022-12-10T13:13:30;99038.94;;;2.82;69.29
16777;BME280;8505;49.456;8.164;2022-12-10T13:16:46;99046.38;;;2.87;68.25
16777;BME280;8505;49.456;8.164;2022-12-10T13:19:24;99039.88;;;2.91;68.00
16777;BME280;8505;49.456;8.164;2022-12-10T13:22:07;99039.34;;;2.88;67.99
16777;BME280;8505;49.456;8.164;2022-12-10T13:24:45;99049.00;;;2.77;67.95
16777;BME280;8505;49.456;8.164;2022-12-10T13:27:18;99046.13;;;2.61;67.79
16777;BME280;8505;49.456;8.164;2022-12-10T13:29:53;99048.56;;;3.01;67.08
16777;BME280;8505;49.456;8.164;2022-12-10T13:32:23;99052.03;;;2.34;68.50
16777;BME280;8505;49.456;8.164;2022-12-10T13:35:18;99056.59;;;2.52;69.37
16777;BME280;8505;49.456;8.164;2022-12-10T13:37:56;99056.00;;;2.67;68.58
16777;BME280;8505;49.456;8.164;2022-12-10T13:40:27;99059.59;;;2.57;69.42
16777;BME280;8505;49.456;8.164;2022-12-10T13:43:25;99072.78;;;2.36;70.44
16777;BME280;8505;49.456;8.164;2022-12-10T13:46:22;99062.19;;;2.66;69.77
16777;BME280;8505;49.456;8.164;2022-12-10T13:48:51;99065.78;;;2.75;69.72
16777;BME280;8505;49.456;8.164;2022-12-10T13:51:36;99070.72;;;2.88;69.42
16777;BME280;8505;49.456;8.164;2022-12-10T13:54:33;99075.41;;;2.94;69.29